Time;durP1;ratioP1;P1;durP2;ratioP2;P2;SDS_P1;SDS_P2;PMS_P1;PMS_P2;Temp;Humidity;BMP_temperature;BMP_pressure;BME280_temperature;BME280_humidity;BME280_pressure;Samples;Min_cycle;Max_cycle;Signal;HPM_P1;HPM_P2
2021/12/15 00:00:48;;;;;;;52.38;24.50;;;;;;;;;;5068261;28;20049;-73
2021/12/15 00:03:16;;;;;;;44.22;25.35;;;;;;;;;;5063670;28;20029;-72
2021/12/15 00:05:42;;;;;;;47.15;26.42;;;;;;;;;;5064821;28;20033;-73
2021/12/15 00:08:11;;;;;;;40.17;26.65;;;;;;;;;;5051838;28;20044;-73
2021/12/15 00:10:38;;;;;;;46.17;26.27;;;;;;;;;;5080017;28;20320;-73
2021/12/15 00:13:05;;;;;;;52.35;25.83;;;;;;;;;;5064155;28;20175;-73
2021/12/15 00:15:31;;;;;;;57.85;28.10;;;;;;;;;;5067590;28;20450;-73
2021/12/15 00:17:57;;;;;;;48.72;26.45;;;;;;;;;;5063862;28;20036;-73
2021/12/15 00:20:24;;;;;;;47.20;23.60;;;;;;;;;;5062348;28;20489;-73
2021/12/15 00:22:52;;;;;;;54.60;27.50;;;;;;;;;;5066777;28;20076;-73
2021/12/15 00:25:19;;;;;;;49.17;26.25;;;;;;;;;;5064483;28;20386;-73
2021/12/15 00:27:45;;;;;;;46.63;25.75;;;;;;;;;;5069254;28;20466;-73
2021/12/15 00:30:12;;;;;;;46.35;24.73;;;;;;;;;;5065814;28;20166;-74
2021/12/15 00:32:38;;;;;;;47.17;24.63;;;;;;;;;;5063150;28;20443;-73
2021/12/15 00:35:06;;;;;;;50.40;25.75;;;;;;;;;;5068389;28;20041;-73
2021/12/15 00:37:32;;;;;;;48.08;24.35;;;;;;;;;;5065531;28;20044;-73
2021/12/15 00:39:58;;;;;;;53.55;24.60;;;;;;;;;;5064096;28;20040;-73
2021/12/15 00:42:24;;;;;;;44.00;24.38;;;;;;;;;;5067749;28;20320;-72
2021/12/15 00:44:51;;;;;;;44.22;23.73;;;;;;;;;;5064879;28;20040;-73
2021/12/15 00:47:18;;;;;;;41.35;23.65;;;;;;;;;;5061588;28;20074;-73
2021/12/15 00:49:45;;;;;;;46.00;25.20;;;;;;;;;;5065325;28;20444;-74
2021/12/15 00:52:11;;;;;;;45.10;23.77;;;;;;;;;;5063923;28;20418;-73
2021/12/15 00:54:37;;;;;;;42.08;22.73;;;;;;;;;;5067853;28;20086;-73
2021/12/15 00:57:04;;;;;;;47.20;24.95;;;;;;;;;;5067431;28;20068;-72
2021/12/15 00:59:30;;;;;;;42.55;24.50;;;;;;;;;;5095497;28;20294;-73
2021/12/15 01:01:57;;;;;;;47.78;25.05;;;;;;;;;;5044274;28;20522;-73
2021/12/15 01:04:24;;;;;;;50.55;24.00;;;;;;;;;;5065440;28;20052;-73
2021/12/15 01:06:53;;;;;;;47.88;24.65;;;;;;;;;;5059162;28;20119;-73
2021/12/15 01:09:22;;;;;;;47.67;24.55;;;;;;;;;;5069007;28;20040;-73
2021/12/15 01:12:19;;;;;;;48.67;25.48;;;;;;;;;;5066400;28;20356;-73
2021/12/15 01:20:18;;;;;;;50.58;27.58;;;;;;;;;;5043213;28;20044;-72
2021/12/15 01:22:47;;;;;;;44.30;26.43;;;;;;;;;;5062998;28;20037;-71
2021/12/15 01:25:33;;;;;;;51.95;28.13;;;;;;;;;;5054463;28;20280;-72
2021/12/15 01:28:00;;;;;;;51.65;27.80;;;;;;;;;;5066273;28;20033;-72
2021/12/15 01:30:28;;;;;;;50.67;26.77;;;;;;;;;;5065354;28;20544;-72
2021/12/15 01:32:54;;;;;;;45.20;27.33;;;;;;;;;;5056316;28;20115;-72
2021/12/15 01:35:20;;;;;;;59.15;27.42;;;;;;;;;;5065676;28;20131;-72
2021/12/15 01:37:47;;;;;;;50.85;26.08;;;;;;;;;;5062996;28;20126;-72
2021/12/15 01:40:21;;;;;;;62.95;30.25;;;;;;;;;;5062751;28;20043;-71
2021/12/15 01:42:47;;;;;;;58.38;29.35;;;;;;;;;;5092514;28;20139;-72
2021/12/15 01:48:00;;;;;;;57.33;32.55;;;;;;;;;;5063689;28;20040;-71
2021/12/15 01:50:26;;;;;;;67.32;31.60;;;;;;;;;;5066075;28;20032;-72
2021/12/15 01:52:52;;;;;;;56.78;31.20;;;;;;;;;;5065676;28;20044;-72
2021/12/15 01:55:19;;;;;;;53.00;30.40;;;;;;;;;;5065331;28;20067;-71
2021/12/15 01:57:46;;;;;;;59.30;32.97;;;;;;;;;;5066415;28;20041;-71
2021/12/15 02:00:14;;;;;;;62.08;33.72;;;;;;;;;;5062637;28;20052;-72
2021/12/15 02:02:40;;;;;;;55.08;30.05;;;;;;;;;;5058912;28;20545;-72
2021/12/15 02:05:07;;;;;;;63.45;33.90;;;;;;;;;;5064876;28;20487;-72
2021/12/15 02:07:33;;;;;;;52.38;30.80;;;;;;;;;;5058032;28;20043;-72
2021/12/15 02:12:31;;;;;;;55.40;30.30;;;;;;;;;;5065555;28;20041;-72
2021/12/15 02:14:58;;;;;;;66.70;31.77;;;;;;;;;;5062068;28;20076;-72
2021/12/15 02:17:24;;;;;;;57.85;32.05;;;;;;;;;;5066059;28;20402;-72
2021/12/15 02:19:50;;;;;;;59.38;31.05;;;;;;;;;;5099461;27;20055;-71
2021/12/15 02:22:17;;;;;;;65.03;35.17;;;;;;;;;;5069415;28;20033;-72
2021/12/15 02:24:46;;;;;;;61.92;34.35;;;;;;;;;;5068413;28;20095;-72
2021/12/15 02:27:14;;;;;;;62.55;32.67;;;;;;;;;;5049482;28;20052;-72
2021/12/15 02:29:43;;;;;;;57.75;33.03;;;;;;;;;;5068408;28;20070;-72
2021/12/15 02:32:19;;;;;;;57.58;32.65;;;;;;;;;;5057326;28;20037;-72
2021/12/15 02:37:30;;;;;;;55.75;31.92;;;;;;;;;;5098512;28;20438;-72
2021/12/15 02:40:03;;;;;;;57.65;32.50;;;;;;;;;;5069799;28;20071;-72
2021/12/15 02:42:31;;;;;;;52.50;30.85;;;;;;;;;;5069336;28;20047;-72
2021/12/15 02:44:57;;;;;;;58.75;32.95;;;;;;;;;;5065932;28;20195;-72
2021/12/15 02:47:25;;;;;;;68.18;32.63;;;;;;;;;;5053069;28;20504;-72
2021/12/15 02:49:52;;;;;;;53.08;31.30;;;;;;;;;;5070216;28;20617;-72
2021/12/15 02:52:19;;;;;;;72.40;32.38;;;;;;;;;;5068788;28;20033;-71
2021/12/15 02:54:45;;;;;;;62.13;31.92;;;;;;;;;;5071402;28;20052;-71
2021/12/15 02:57:12;;;;;;;59.38;34.20;;;;;;;;;;5068949;28;20094;-72
2021/12/15 03:02:52;;;;;;;88.18;37.47;;;;;;;;;;5102846;27;20049;-72
2021/12/15 03:05:14;;;;;;;62.03;35.13;;;;;;;;;;5070671;28;20503;-72
2021/12/15 03:07:48;;;;;;;60.90;36.65;;;;;;;;;;5094372;28;20044;-71
2021/12/15 03:15:45;;;;;;;67.80;38.08;;;;;;;;;;5068511;28;20072;-72
2021/12/15 03:18:11;;;;;;;67.00;39.00;;;;;;;;;;5067457;28;20044;-72
2021/12/15 03:20:46;;;;;;;79.57;41.40;;;;;;;;;;5060981;28;20406;-71
2021/12/15 03:23:13;;;;;;;83.53;41.50;;;;;;;;;;5080797;28;20037;-72
2021/12/15 03:25:39;;;;;;;80.50;40.65;;;;;;;;;;5070077;28;20292;-72
2021/12/15 03:37:06;;;;;;;73.40;42.03;;;;;;;;;;5022345;28;20546;-72
2021/12/15 03:39:34;;;;;;;67.63;35.63;;;;;;;;;;5039830;28;20346;-72
2021/12/15 03:42:04;;;;;;;66.05;36.25;;;;;;;;;;5057020;28;20041;-72
2021/12/15 03:44:32;;;;;;;71.25;38.22;;;;;;;;;;5094524;28;20037;-72
2021/12/15 03:46:59;;;;;;;69.20;38.03;;;;;;;;;;5076316;28;20405;-72
2021/12/15 03:49:25;;;;;;;61.38;34.13;;;;;;;;;;5066188;28;20502;-72
2021/12/15 03:51:51;;;;;;;75.43;36.85;;;;;;;;;;5069846;28;20079;-72
2021/12/15 03:54:17;;;;;;;62.75;35.25;;;;;;;;;;5075041;28;20040;-72
2021/12/15 03:56:44;;;;;;;65.18;35.95;;;;;;;;;;5065878;28;20286;-71
2021/12/15 03:59:11;;;;;;;63.85;35.25;;;;;;;;;;5050018;28;20038;-72
2021/12/15 04:01:38;;;;;;;59.13;35.20;;;;;;;;;;5066581;28;20063;-71
2021/12/15 04:04:04;;;;;;;67.70;34.33;;;;;;;;;;5049698;28;20040;-71
2021/12/15 04:06:33;;;;;;;64.47;32.65;;;;;;;;;;5068743;28;20390;-72
2021/12/15 04:08:59;;;;;;;58.70;30.58;;;;;;;;;;5068500;28;20033;-72
2021/12/15 04:11:28;;;;;;;55.78;32.95;;;;;;;;;;5067918;28;20170;-72
2021/12/15 04:13:59;;;;;;;64.80;35.22;;;;;;;;;;5069197;28;20044;-72
2021/12/15 04:19:01;;;;;;;60.70;37.33;;;;;;;;;;5050094;28;20049;-72
2021/12/15 04:21:28;;;;;;;54.38;33.35;;;;;;;;;;5068990;28;20241;-71
2021/12/15 04:23:55;;;;;;;65.10;35.17;;;;;;;;;;5050470;28;20133;-72
2021/12/15 04:26:21;;;;;;;74.05;33.67;;;;;;;;;;5068038;28;20078;-72
2021/12/15 04:28:47;;;;;;;71.03;34.97;;;;;;;;;;5062726;28;20056;-72
2021/12/15 04:31:16;;;;;;;53.55;33.80;;;;;;;;;;5068476;28;20106;-71
2021/12/15 04:33:42;;;;;;;54.35;32.30;;;;;;;;;;5068825;28;20064;-71
2021/12/15 04:36:09;;;;;;;67.78;33.90;;;;;;;;;;5067059;28;20094;-72
2021/12/15 04:38:36;;;;;;;65.10;32.25;;;;;;;;;;5067677;28;20028;-71
2021/12/15 04:41:04;;;;;;;70.05;35.20;;;;;;;;;;5067517;28;20036;-72
2021/12/15 04:43:34;;;;;;;58.33;34.25;;;;;;;;;;5063999;28;20092;-71
2021/12/15 04:46:01;;;;;;;57.65;30.35;;;;;;;;;;5095850;28;20127;-72
2021/12/15 04:48:27;;;;;;;60.58;31.67;;;;;;;;;;5069453;28;20247;-71
2021/12/15 04:50:53;;;;;;;60.50;34.15;;;;;;;;;;5068416;28;20406;-72
2021/12/15 04:53:20;;;;;;;55.65;32.17;;;;;;;;;;5066200;28;20477;-72
2021/12/15 04:55:46;;;;;;;67.85;33.00;;;;;;;;;;5068791;28;20104;-72
2021/12/15 04:58:14;;;;;;;59.35;34.08;;;;;;;;;;5068787;28;20036;-72
2021/12/15 05:01:01;;;;;;;68.93;31.23;;;;;;;;;;5065546;28;20055;-72
2021/12/15 05:03:27;;;;;;;64.00;32.72;;;;;;;;;;5067550;28;20086;-72
2021/12/15 05:05:53;;;;;;;63.42;33.45;;;;;;;;;;5065568;28;20043;-71
2021/12/15 05:08:20;;;;;;;62.70;33.75;;;;;;;;;;5060056;28;20306;-71
2021/12/15 05:10:47;;;;;;;53.17;29.90;;;;;;;;;;5065449;28;20033;-72
2021/12/15 05:13:13;;;;;;;57.15;32.05;;;;;;;;;;5066851;28;20047;-72
2021/12/15 05:15:40;;;;;;;56.85;31.27;;;;;;;;;;5063687;28;20044;-72
2021/12/15 05:18:07;;;;;;;53.80;31.15;;;;;;;;;;5067878;28;20075;-72
2021/12/15 05:20:35;;;;;;;51.70;29.92;;;;;;;;;;5068259;28;20382;-72
2021/12/15 05:23:03;;;;;;;60.83;33.15;;;;;;;;;;5066000;28;20486;-72
2021/12/15 05:25:29;;;;;;;58.80;31.88;;;;;;;;;;5068974;28;20494;-72
2021/12/15 05:27:55;;;;;;;61.50;32.53;;;;;;;;;;5065875;28;20673;-71
2021/12/15 05:30:21;;;;;;;62.28;34.53;;;;;;;;;;5059925;28;20097;-72
2021/12/15 05:32:48;;;;;;;57.25;33.95;;;;;;;;;;5068903;28;20083;-72
2021/12/15 05:35:20;;;;;;;58.65;31.52;;;;;;;;;;5094922;28;20032;-74
2021/12/15 05:37:47;;;;;;;58.20;29.88;;;;;;;;;;5064608;28;20544;-74
2021/12/15 05:40:13;;;;;;;56.75;30.75;;;;;;;;;;5065753;28;20413;-75
2021/12/15 05:42:39;;;;;;;65.28;31.25;;;;;;;;;;5076628;28;20551;-74
2021/12/15 05:45:06;;;;;;;52.00;28.67;;;;;;;;;;5064897;28;20040;-72
2021/12/15 05:47:32;;;;;;;56.55;31.17;;;;;;;;;;5056512;28;20045;-72
2021/12/15 05:49:58;;;;;;;56.30;30.40;;;;;;;;;;5057182;28;20029;-72
2021/12/15 05:52:30;;;;;;;56.08;32.88;;;;;;;;;;5064670;28;20111;-72
2021/12/15 05:54:57;;;;;;;55.05;31.90;;;;;;;;;;5062008;28;20518;-72
2021/12/15 05:57:23;;;;;;;55.70;28.90;;;;;;;;;;5056976;28;20028;-72
2021/12/15 05:59:49;;;;;;;52.95;31.45;;;;;;;;;;5055250;28;20516;-74
2021/12/15 06:02:15;;;;;;;48.38;29.70;;;;;;;;;;5054821;28;20059;-75
2021/12/15 06:04:41;;;;;;;66.32;32.15;;;;;;;;;;5055518;28;20509;-74
2021/12/15 06:07:08;;;;;;;60.33;31.02;;;;;;;;;;5054031;28;20040;-74
2021/12/15 06:09:34;;;;;;;53.17;29.13;;;;;;;;;;5060987;28;20029;-74
2021/12/15 06:12:01;;;;;;;58.05;32.35;;;;;;;;;;5068828;28;20048;-74
2021/12/15 06:14:28;;;;;;;54.65;30.85;;;;;;;;;;5051083;28;20068;-72
2021/12/15 06:17:00;;;;;;;60.30;29.83;;;;;;;;;;5061417;28;20032;-74
2021/12/15 06:19:26;;;;;;;53.55;31.40;;;;;;;;;;5056662;28;20122;-75
2021/12/15 06:21:53;;;;;;;63.90;30.88;;;;;;;;;;5058453;28;20051;-72
2021/12/15 06:24:19;;;;;;;56.05;29.63;;;;;;;;;;5065026;28;20029;-72
2021/12/15 06:26:45;;;;;;;51.83;29.90;;;;;;;;;;5067676;28;20040;-74
2021/12/15 06:29:11;;;;;;;56.08;29.13;;;;;;;;;;5067839;28;20046;-74
2021/12/15 06:31:38;;;;;;;52.45;26.30;;;;;;;;;;5061034;28;20088;-75
2021/12/15 06:34:05;;;;;;;55.72;29.90;;;;;;;;;;5081113;28;20048;-73
2021/12/15 06:36:32;;;;;;;48.35;26.83;;;;;;;;;;5063112;28;20106;-74
2021/12/15 06:38:58;;;;;;;57.42;29.42;;;;;;;;;;5091896;28;20090;-73
2021/12/15 06:41:24;;;;;;;49.53;27.83;;;;;;;;;;5065054;28;20127;-72
2021/12/15 06:43:55;;;;;;;54.63;28.77;;;;;;;;;;5048707;28;20051;-72
2021/12/15 06:57:34;;;;;;;45.33;24.80;;;;;;;;;;5064138;28;20052;-72
2021/12/15 07:00:11;;;;;;;47.17;26.00;;;;;;;;;;5067025;28;20442;-72
2021/12/15 07:02:40;;;;;;;42.50;24.85;;;;;;;;;;5098542;28;20238;-71
2021/12/15 07:05:09;;;;;;;46.25;25.60;;;;;;;;;;5058968;28;20543;-72
2021/12/15 07:07:36;;;;;;;53.03;25.23;;;;;;;;;;5072561;28;20047;-72
2021/12/15 07:10:03;;;;;;;43.17;23.70;;;;;;;;;;5099212;28;20087;-72
2021/12/15 07:12:30;;;;;;;38.58;23.17;;;;;;;;;;5067398;28;20542;-72
2021/12/15 07:14:56;;;;;;;40.53;24.05;;;;;;;;;;5067257;28;20041;-72
2021/12/15 07:17:25;;;;;;;40.08;24.38;;;;;;;;;;5069766;28;20037;-72
2021/12/15 07:24:56;;;;;;;47.10;21.95;;;;;;;;;;5067989;28;20379;-72
2021/12/15 07:27:22;;;;;;;39.72;22.23;;;;;;;;;;5063426;28;20090;-72
2021/12/15 07:29:49;;;;;;;35.65;21.60;;;;;;;;;;5066876;28;20091;-72
2021/12/15 07:32:15;;;;;;;46.92;22.52;;;;;;;;;;5068508;28;20559;-72
2021/12/15 07:34:41;;;;;;;34.60;19.85;;;;;;;;;;5068253;28;20028;-72
2021/12/15 07:37:07;;;;;;;39.25;18.73;;;;;;;;;;5069413;28;20051;-72
2021/12/15 07:39:35;;;;;;;38.00;19.75;;;;;;;;;;5066459;28;20628;-71
2021/12/15 07:42:09;;;;;;;38.33;18.98;;;;;;;;;;5058977;28;20048;-72
2021/12/15 07:44:36;;;;;;;31.38;17.48;;;;;;;;;;5067310;28;20041;-72
2021/12/15 07:47:02;;;;;;;33.90;18.55;;;;;;;;;;5067462;28;20028;-71
2021/12/15 07:49:29;;;;;;;31.63;17.38;;;;;;;;;;5070323;28;20047;-72
2021/12/15 07:52:04;;;;;;;30.17;17.10;;;;;;;;;;5069514;28;20131;-72
2021/12/15 07:54:32;;;;;;;27.90;16.65;;;;;;;;;;5066513;28;20509;-71
2021/12/15 07:56:59;;;;;;;32.65;16.85;;;;;;;;;;5101841;27;20378;-72
2021/12/15 07:59:25;;;;;;;25.42;14.05;;;;;;;;;;5064586;28;20536;-72
2021/12/15 08:01:51;;;;;;;20.63;12.15;;;;;;;;;;5063189;28;20573;-72
2021/12/15 08:04:18;;;;;;;21.92;12.77;;;;;;;;;;5071436;28;20430;-72
2021/12/15 08:06:48;;;;;;;23.98;12.18;;;;;;;;;;5069303;28;20040;-71
2021/12/15 08:09:15;;;;;;;29.95;11.43;;;;;;;;;;5081865;28;20043;-71
2021/12/15 08:11:41;;;;;;;24.52;11.85;;;;;;;;;;5066198;28;20041;-71
2021/12/15 08:14:07;;;;;;;20.58;12.02;;;;;;;;;;5066711;28;20036;-72
2021/12/15 08:16:34;;;;;;;22.67;13.55;;;;;;;;;;5065841;28;20040;-72
2021/12/15 08:19:01;;;;;;;29.08;13.55;;;;;;;;;;5068870;28;20051;-72
2021/12/15 08:21:28;;;;;;;26.50;14.95;;;;;;;;;;5093415;27;20102;-71
2021/12/15 08:23:55;;;;;;;20.73;13.98;;;;;;;;;;5059702;28;20036;-72
2021/12/15 08:26:21;;;;;;;32.67;15.55;;;;;;;;;;5084010;28;20210;-72
2021/12/15 08:28:48;;;;;;;39.05;18.35;;;;;;;;;;5065379;28;20060;-71
2021/12/15 08:31:14;;;;;;;38.70;17.65;;;;;;;;;;5060358;28;20052;-72
2021/12/15 08:33:40;;;;;;;40.97;17.77;;;;;;;;;;5070142;28;20066;-71
2021/12/15 08:36:09;;;;;;;40.42;20.50;;;;;;;;;;5067161;28;20068;-71
2021/12/15 08:38:37;;;;;;;32.28;20.33;;;;;;;;;;5067371;28;20037;-72
2021/12/15 08:41:05;;;;;;;32.47;20.00;;;;;;;;;;5071973;28;20041;-71
2021/12/15 08:43:31;;;;;;;31.50;21.55;;;;;;;;;;5064980;28;20356;-71
2021/12/15 08:46:09;;;;;;;38.35;22.85;;;;;;;;;;5064226;28;20079;-72
2021/12/15 08:48:35;;;;;;;39.30;20.73;;;;;;;;;;5082448;28;20055;-72
2021/12/15 08:51:03;;;;;;;37.00;22.40;;;;;;;;;;5095733;27;20052;-71
2021/12/15 08:53:29;;;;;;;40.63;23.30;;;;;;;;;;5054276;28;20033;-72
2021/12/15 08:55:55;;;;;;;37.53;22.27;;;;;;;;;;5071035;28;20115;-72
2021/12/15 08:58:22;;;;;;;51.00;26.45;;;;;;;;;;5091020;27;20044;-71
2021/12/15 09:00:51;;;;;;;38.58;20.83;;;;;;;;;;5056842;28;20502;-72
2021/12/15 09:03:18;;;;;;;38.90;23.15;;;;;;;;;;5054332;28;20037;-72
2021/12/15 09:05:45;;;;;;;40.63;21.52;;;;;;;;;;5052707;28;20119;-72
2021/12/15 09:08:12;;;;;;;36.92;22.17;;;;;;;;;;5058033;28;20037;-71
2021/12/15 09:10:40;;;;;;;34.42;20.60;;;;;;;;;;5059095;28;20182;-72
2021/12/15 09:13:08;;;;;;;36.90;19.45;;;;;;;;;;5053340;28;20062;-71
2021/12/15 09:15:36;;;;;;;45.03;19.65;;;;;;;;;;5060195;28;20092;-72
2021/12/15 09:18:02;;;;;;;38.92;21.27;;;;;;;;;;5054967;28;20151;-72
2021/12/15 09:20:29;;;;;;;26.13;18.40;;;;;;;;;;5052210;28;20072;-71
2021/12/15 09:22:56;;;;;;;37.53;18.75;;;;;;;;;;5061575;28;20055;-72
2021/12/15 09:25:24;;;;;;;35.40;17.80;;;;;;;;;;5068343;28;20036;-72
2021/12/15 09:27:50;;;;;;;30.25;16.30;;;;;;;;;;5065046;28;20064;-71
2021/12/15 09:30:18;;;;;;;26.00;16.10;;;;;;;;;;5093562;27;20064;-72
2021/12/15 09:32:45;;;;;;;25.45;15.82;;;;;;;;;;5059377;28;20509;-72
2021/12/15 09:35:12;;;;;;;23.45;14.15;;;;;;;;;;5060231;28;20047;-72
2021/12/15 09:37:39;;;;;;;28.90;14.65;;;;;;;;;;5054702;28;20078;-72
2021/12/15 09:40:07;;;;;;;28.92;15.52;;;;;;;;;;5093545;28;20041;-72
2021/12/15 09:42:38;;;;;;;26.10;14.82;;;;;;;;;;5060059;28;20079;-72
2021/12/15 09:45:23;;;;;;;27.75;13.75;;;;;;;;;;5087015;28;20219;-72
2021/12/15 10:07:18;;;;;;;24.80;15.02;;;;;;;;;;5058581;28;20539;-72
2021/12/15 10:17:54;;;;;;;22.25;13.85;;;;;;;;;;5059697;28;20453;-71
2021/12/15 10:20:22;;;;;;;28.00;14.57;;;;;;;;;;5061077;28;20569;-72
2021/12/15 10:22:53;;;;;;;20.70;14.02;;;;;;;;;;5093420;28;20060;-72
2021/12/15 10:25:24;;;;;;;23.60;15.07;;;;;;;;;;5062169;28;20040;-72
2021/12/15 10:27:53;;;;;;;24.55;15.48;;;;;;;;;;5090808;28;20045;-71
2021/12/15 10:30:24;;;;;;;21.08;13.23;;;;;;;;;;5051019;28;20458;-72
2021/12/15 10:32:52;;;;;;;29.50;14.35;;;;;;;;;;5059403;28;20443;-72
2021/12/15 10:35:32;;;;;;;34.00;13.63;;;;;;;;;;5056465;28;20039;-72
2021/12/15 10:38:18;;;;;;;26.23;13.05;;;;;;;;;;5057585;28;20080;-72
2021/12/15 10:40:44;;;;;;;23.55;13.77;;;;;;;;;;5057472;28;20095;-72
2021/12/15 10:43:11;;;;;;;22.85;12.75;;;;;;;;;;5063771;28;20127;-72
2021/12/15 10:45:39;;;;;;;19.77;11.98;;;;;;;;;;5051331;28;20127;-72
2021/12/15 10:48:10;;;;;;;26.67;11.98;;;;;;;;;;5064829;28;20079;-72
2021/12/15 10:50:37;;;;;;;25.05;11.95;;;;;;;;;;5058853;28;20523;-72
2021/12/15 10:53:03;;;;;;;21.80;11.90;;;;;;;;;;5059716;28;20099;-71
2021/12/15 10:55:31;;;;;;;25.42;10.50;;;;;;;;;;5064992;28;20506;-72
2021/12/15 10:57:57;;;;;;;21.77;10.60;;;;;;;;;;5058348;28;20051;-72
2021/12/15 11:00:24;;;;;;;22.15;10.82;;;;;;;;;;5059903;28;20055;-72
2021/12/15 11:02:50;;;;;;;16.60;10.50;;;;;;;;;;5063863;28;20498;-72
2021/12/15 11:05:19;;;;;;;24.92;10.75;;;;;;;;;;5064463;28;20604;-72
2021/12/15 11:07:45;;;;;;;20.83;11.10;;;;;;;;;;5057772;28;20045;-72
2021/12/15 11:10:12;;;;;;;14.27;8.25;;;;;;;;;;5058512;28;20040;-72
2021/12/15 11:12:44;;;;;;;20.30;10.65;;;;;;;;;;5057975;28;20072;-72
2021/12/15 11:15:15;;;;;;;20.85;11.20;;;;;;;;;;5064154;28;20040;-72
2021/12/15 11:17:43;;;;;;;14.48;9.18;;;;;;;;;;5058104;28;20447;-72
2021/12/15 11:20:09;;;;;;;17.05;8.35;;;;;;;;;;5057382;28;20051;-72
2021/12/15 11:22:40;;;;;;;17.58;6.85;;;;;;;;;;5066460;28;20040;-72
2021/12/15 11:25:09;;;;;;;12.93;5.97;;;;;;;;;;5057923;28;20045;-72
2021/12/15 11:27:35;;;;;;;9.52;5.35;;;;;;;;;;5065153;28;20129;-72
2021/12/15 11:30:02;;;;;;;13.15;6.07;;;;;;;;;;5064131;28;20514;-72
2021/12/15 11:32:40;;;;;;;13.38;6.30;;;;;;;;;;5054676;28;20044;-72
2021/12/15 11:35:17;;;;;;;11.68;5.43;;;;;;;;;;5079014;28;20052;-72
2021/12/15 11:37:44;;;;;;;9.30;5.38;;;;;;;;;;5064889;28;20045;-73
2021/12/15 11:40:10;;;;;;;12.52;4.50;;;;;;;;;;5057560;28;20505;-71
2021/12/15 11:42:40;;;;;;;10.90;3.90;;;;;;;;;;5062853;28;20360;-71
2021/12/15 11:45:07;;;;;;;14.25;5.50;;;;;;;;;;5094837;27;20116;-72
2021/12/15 11:47:33;;;;;;;13.35;4.28;;;;;;;;;;5045297;28;20482;-72
2021/12/15 11:50:07;;;;;;;10.52;4.78;;;;;;;;;;5061203;28;20056;-72
2021/12/15 11:52:44;;;;;;;7.30;4.13;;;;;;;;;;5060013;28;20049;-72
2021/12/15 11:55:33;;;;;;;7.53;3.35;;;;;;;;;;5058702;28;20084;-72
2021/12/15 11:58:00;;;;;;;7.80;3.20;;;;;;;;;;5062905;28;20048;-72
2021/12/15 12:00:28;;;;;;;9.75;3.10;;;;;;;;;;5094047;28;20045;-73
2021/12/15 12:02:58;;;;;;;8.95;3.50;;;;;;;;;;5055979;28;20167;-72
2021/12/15 12:05:35;;;;;;;4.68;2.90;;;;;;;;;;5098746;27;20109;-72
2021/12/15 12:08:07;;;;;;;7.68;3.85;;;;;;;;;;5061885;28;20210;-73
2021/12/15 12:10:48;;;;;;;6.40;2.63;;;;;;;;;;5059116;28;20124;-72
2021/12/15 12:13:21;;;;;;;3.70;2.35;;;;;;;;;;5061718;28;20128;-73
2021/12/15 12:15:47;;;;;;;;;;;;;;;;;;5090845;28;20123;-73
2021/12/15 12:18:16;;;;;;;6.85;2.65;;;;;;;;;;5056475;28;19920;-73
2021/12/15 12:20:43;;;;;;;3.40;1.85;;;;;;;;;;5062218;28;20076;-73
2021/12/15 12:23:11;;;;;;;4.90;2.08;;;;;;;;;;5059106;28;20083;-73
2021/12/15 12:25:39;;;;;;;5.18;2.20;;;;;;;;;;5054135;28;20126;-73
2021/12/15 12:28:07;;;;;;;5.60;2.35;;;;;;;;;;5055194;28;20127;-74
2021/12/15 12:30:38;;;;;;;4.97;1.98;;;;;;;;;;5056320;28;20057;-73
2021/12/15 12:33:08;;;;;;;3.88;1.83;;;;;;;;;;5054482;28;20523;-73
2021/12/15 12:35:37;;;;;;;4.97;2.05;;;;;;;;;;5060007;28;20044;-73
2021/12/15 12:38:10;;;;;;;5.70;1.83;;;;;;;;;;5057532;28;20639;-73
2021/12/15 12:40:39;;;;;;;3.17;1.60;;;;;;;;;;5050642;28;20049;-73
2021/12/15 12:43:19;;;;;;;6.25;1.77;;;;;;;;;;5058268;28;20047;-73
2021/12/15 12:45:53;;;;;;;4.40;1.70;;;;;;;;;;5058588;28;20038;-72
2021/12/15 13:00:27;;;;;;;6.22;1.90;;;;;;;;;;5054607;28;20140;-73
2021/12/15 13:03:01;;;;;;;4.35;2.00;;;;;;;;;;5060751;28;20120;-73
2021/12/15 13:05:46;;;;;;;4.13;1.77;;;;;;;;;;5059933;28;20039;-73
2021/12/15 13:08:18;;;;;;;3.75;1.50;;;;;;;;;;5063434;28;20048;-72
2021/12/15 13:10:47;;;;;;;5.93;2.77;;;;;;;;;;5067614;28;20119;-72
2021/12/15 13:13:15;;;;;;;14.77;2.03;;;;;;;;;;5061913;28;20498;-72
2021/12/15 13:15:41;;;;;;;3.20;1.80;;;;;;;;;;5065453;28;20041;-72
2021/12/15 13:18:12;;;;;;;3.58;1.85;;;;;;;;;;5067304;28;20072;-73
2021/12/15 13:20:38;;;;;;;3.35;1.77;;;;;;;;;;5065270;28;20056;-72
2021/12/15 13:31:13;;;;;;;3.55;1.63;;;;;;;;;;5097502;27;20101;-72
2021/12/15 13:33:40;;;;;;;7.63;1.85;;;;;;;;;;5068684;28;20523;-72
2021/12/15 13:36:14;;;;;;;6.70;2.20;;;;;;;;;;5061756;28;20354;-72
2021/12/15 13:38:52;;;;;;;3.58;1.75;;;;;;;;;;5066661;28;20406;-72
2021/12/15 13:41:39;;;;;;;3.92;1.70;;;;;;;;;;5064633;28;20040;-73
2021/12/15 13:44:26;;;;;;;6.38;1.92;;;;;;;;;;5065270;28;20063;-72
2021/12/15 13:47:01;;;;;;;5.63;2.05;;;;;;;;;;5066687;28;20446;-72
2021/12/15 13:49:30;;;;;;;3.53;2.28;;;;;;;;;;5067250;28;20082;-72
2021/12/15 13:52:26;;;;;;;2.95;1.80;;;;;;;;;;5066545;28;20445;-72
2021/12/15 13:54:54;;;;;;;7.72;3.20;;;;;;;;;;5053570;28;20075;-72
2021/12/15 13:57:23;;;;;;;7.47;2.55;;;;;;;;;;5066425;28;20044;-71
2021/12/15 14:00:04;;;;;;;4.68;1.85;;;;;;;;;;5064596;28;20052;-72
2021/12/15 14:02:33;;;;;;;3.33;2.33;;;;;;;;;;5060890;28;20089;-72
2021/12/15 14:04:59;;;;;;;4.97;2.17;;;;;;;;;;5058412;28;20051;-72
2021/12/15 14:07:31;;;;;;;7.95;3.45;;;;;;;;;;5048843;28;20041;-72
2021/12/15 14:10:12;;;;;;;5.95;2.83;;;;;;;;;;5060958;28;20036;-72
2021/12/15 14:12:45;;;;;;;7.57;2.63;;;;;;;;;;5089592;28;20473;-72
2021/12/15 14:15:11;;;;;;;6.00;2.00;;;;;;;;;;5068752;28;20575;-72
2021/12/15 14:17:37;;;;;;;3.85;1.92;;;;;;;;;;5067883;28;20119;-72
2021/12/15 14:20:14;;;;;;;10.25;2.60;;;;;;;;;;5071125;28;20594;-72
2021/12/15 14:22:43;;;;;;;5.85;2.28;;;;;;;;;;5072092;28;20133;-72
2021/12/15 14:25:10;;;;;;;3.53;1.90;;;;;;;;;;5066697;28;20032;-72
2021/12/15 14:27:37;;;;;;;3.65;1.67;;;;;;;;;;5069534;28;20037;-72
2021/12/15 14:30:09;;;;;;;4.50;1.75;;;;;;;;;;5067868;28;20064;-72
2021/12/15 14:32:35;;;;;;;5.38;2.15;;;;;;;;;;5067122;28;20390;-72
2021/12/15 14:35:02;;;;;;;4.65;1.58;;;;;;;;;;5070497;28;20616;-72
2021/12/15 14:37:28;;;;;;;3.22;2.15;;;;;;;;;;5061543;28;20037;-72
2021/12/15 14:39:54;;;;;;;3.83;1.73;;;;;;;;;;5059642;28;20064;-72
2021/12/15 14:42:22;;;;;;;4.30;1.77;;;;;;;;;;5054435;28;20094;-72
2021/12/15 14:44:53;;;;;;;2.63;1.88;;;;;;;;;;5058356;28;20402;-72
2021/12/15 14:47:21;;;;;;;3.13;1.23;;;;;;;;;;5054817;28;20036;-72
2021/12/15 14:49:51;;;;;;;3.80;1.60;;;;;;;;;;5060564;28;20433;-72
2021/12/15 14:52:19;;;;;;;3.40;1.40;;;;;;;;;;5049122;28;20048;-72
2021/12/15 14:54:46;;;;;;;2.67;1.70;;;;;;;;;;5059516;28;20041;-72
2021/12/15 14:57:14;;;;;;;6.82;2.05;;;;;;;;;;5058972;28;20037;-72
2021/12/15 14:59:42;;;;;;;4.43;1.90;;;;;;;;;;5064529;28;20051;-72
2021/12/15 15:02:11;;;;;;;6.35;2.35;;;;;;;;;;5058590;28;20040;-72
2021/12/15 15:04:38;;;;;;;5.57;3.17;;;;;;;;;;5058796;28;20060;-73
2021/12/15 15:07:06;;;;;;;6.80;1.92;;;;;;;;;;5056973;28;20386;-72
2021/12/15 15:09:37;;;;;;;3.40;1.85;;;;;;;;;;5055139;28;20043;-72
2021/12/15 15:12:22;;;;;;;4.43;1.85;;;;;;;;;;5058883;28;20490;-75
2021/12/15 15:14:52;;;;;;;4.75;1.67;;;;;;;;;;5056307;28;20049;-72
2021/12/15 15:17:25;;;;;;;2.85;1.67;;;;;;;;;;5055832;28;20120;-72
2021/12/15 15:19:52;;;;;;;4.82;2.08;;;;;;;;;;5057613;28;20041;-72
2021/12/15 15:22:23;;;;;;;3.85;2.20;;;;;;;;;;5053459;28;20472;-72
2021/12/15 15:24:51;;;;;;;6.63;2.03;;;;;;;;;;5052419;28;20084;-73
2021/12/15 15:27:19;;;;;;;6.75;1.77;;;;;;;;;;5087757;28;20041;-73
2021/12/15 15:29:52;;;;;;;5.22;1.92;;;;;;;;;;5055173;28;20503;-72
2021/12/15 15:32:18;;;;;;;;;;;;;;;;;;5088858;27;20101;-72
2021/12/15 15:34:45;;;;;;;2.85;1.67;;;;;;;;;;5086684;28;20318;-73
2021/12/15 15:37:17;;;;;;;4.65;2.13;;;;;;;;;;5047192;28;20486;-72
2021/12/15 15:39:44;;;;;;;6.10;2.50;;;;;;;;;;5056690;28;20051;-72
2021/12/15 15:42:24;;;;;;;7.70;1.98;;;;;;;;;;5056766;28;20377;-72
2021/12/15 15:44:50;;;;;;;6.88;1.90;;;;;;;;;;5051883;28;20094;-72
2021/12/15 15:47:20;;;;;;;5.30;1.77;;;;;;;;;;5073637;28;20124;-72
2021/12/15 15:49:52;;;;;;;6.97;2.08;;;;;;;;;;5055701;28;20036;-73
2021/12/15 15:52:18;;;;;;;5.88;2.15;;;;;;;;;;5063050;28;20068;-73
2021/12/15 15:54:44;;;;;;;3.78;1.95;;;;;;;;;;5062285;28;20039;-73
2021/12/15 15:57:10;;;;;;;6.10;2.10;;;;;;;;;;5059725;28;20095;-73
2021/12/15 15:59:41;;;;;;;4.93;1.98;;;;;;;;;;5057738;28;20395;-73
2021/12/15 16:02:08;;;;;;;7.50;2.55;;;;;;;;;;5060392;28;20040;-73
2021/12/15 16:04:35;;;;;;;3.08;1.80;;;;;;;;;;5060700;28;20620;-72
2021/12/15 16:07:01;;;;;;;6.20;2.20;;;;;;;;;;5061520;28;20041;-72
2021/12/15 16:09:29;;;;;;;3.83;1.67;;;;;;;;;;5093903;27;20117;-72
2021/12/15 16:11:57;;;;;;;4.90;2.38;;;;;;;;;;5056508;28;20069;-72